sensor_id;sensor_type;location;lat;lon;timestamp;pressure;altitude;pressure_sealevel;temperature;humidity
6395;BME280;3230;42.588;23.358;2023-04-04T00:02:13;89636.69;;;6.18;100.00
6395;BME280;3230;42.588;23.358;2023-04-04T00:04:39;89634.03;;;6.04;100.00
6395;BME280;3230;42.588;23.358;2023-04-04T00:07:04;89635.91;;;5.99;100.00
6395;BME280;3230;42.588;23.358;2023-04-04T00:09:30;89638.13;;;5.86;100.00
6395;BME280;3230;42.588;23.358;2023-04-04T00:11:55;89633.88;;;5.90;100.00
6395;BME280;3230;42.588;23.358;2023-04-04T00:14:21;89648.13;;;5.74;100.00
6395;BME280;3230;42.588;23.358;2023-04-04T00:16:49;89651.50;;;5.74;100.00
6395;BME280;3230;42.588;23.358;2023-04-04T00:19:15;89643.69;;;5.74;100.00
6395;BME280;3230;42.588;23.358;2023-04-04T00:21:43;89647.47;;;5.87;100.00
6395;BME280;3230;42.588;23.358;2023-04-04T00:24:11;89640.56;;;5.97;100.00
6395;BME280;3230;42.588;23.358;2023-04-04T00:26:36;89638.03;;;5.91;100.00
6395;BME280;3230;42.588;23.358;2023-04-04T00:29:02;89640.56;;;5.97;100.00
6395;BME280;3230;42.588;23.358;2023-04-04T00:31:27;89634.78;;;6.05;100.00
6395;BME280;3230;42.588;23.358;2023-04-04T00:33:53;89629.91;;;5.98;100.00
6395;BME280;3230;42.588;23.358;2023-04-04T00:36:18;89627.34;;;5.93;100.00
6395;BME280;3230;42.588;23.358;2023-04-04T00:38:43;89622.56;;;6.05;100.00
6395;BME280;3230;42.588;23.358;2023-04-04T00:41:09;89615.09;;;5.99;100.00
6395;BME280;3230;42.588;23.358;2023-04-04T00:43:35;89619.56;;;5.93;100.00
6395;BME280;3230;42.588;23.358;2023-04-04T00:46:02;89610.69;;;5.99;100.00
6395;BME280;3230;42.588;23.358;2023-04-04T00:48:28;89606.50;;;5.98;100.00
6395;BME280;3230;42.588;23.358;2023-04-04T00:50:53;89606.56;;;5.93;100.00
6395;BME280;3230;42.588;23.358;2023-04-04T00:53:19;89596.16;;;5.74;100.00
6395;BME280;3230;42.588;23.358;2023-04-04T00:55:45;89598.22;;;5.96;100.00
6395;BME280;3230;42.588;23.358;2023-04-04T00:58:10;89594.63;;;5.92;100.00
6395;BME280;3230;42.588;23.358;2023-04-04T01:00:36;89604.81;;;5.88;100.00
6395;BME280;3230;42.588;23.358;2023-04-04T01:03:02;89605.66;;;5.84;100.00
6395;BME280;3230;42.588;23.358;2023-04-04T01:05:30;89616.97;;;5.93;100.00
6395;BME280;3230;42.588;23.358;2023-04-04T01:07:56;89609.22;;;5.88;100.00
6395;BME280;3230;42.588;23.358;2023-04-04T01:10:21;89614.06;;;6.00;100.00
6395;BME280;3230;42.588;23.358;2023-04-04T01:12:47;89617.31;;;5.86;100.00
6395;BME280;3230;42.588;23.358;2023-04-04T01:15:12;89617.94;;;5.78;100.00
6395;BME280;3230;42.588;23.358;2023-04-04T01:17:39;89614.00;;;5.81;100.00
6395;BME280;3230;42.588;23.358;2023-04-04T01:20:17;89616.63;;;5.56;100.00
6395;BME280;3230;42.588;23.358;2023-04-04T01:22:46;89624.47;;;5.51;100.00
6395;BME280;3230;42.588;23.358;2023-04-04T01:25:13;89617.34;;;5.38;100.00
6395;BME280;3230;42.588;23.358;2023-04-04T01:27:38;89614.97;;;5.41;100.00
6395;BME280;3230;42.588;23.358;2023-04-04T01:30:05;89608.81;;;5.32;100.00
6395;BME280;3230;42.588;23.358;2023-04-04T01:32:34;89613.84;;;5.23;100.00
6395;BME280;3230;42.588;23.358;2023-04-04T01:40:38;89610.56;;;5.18;100.00
6395;BME280;3230;42.588;23.358;2023-04-04T01:43:05;89607.91;;;5.23;100.00
6395;BME280;3230;42.588;23.358;2023-04-04T01:45:31;89589.72;;;5.23;100.00
6395;BME280;3230;42.588;23.358;2023-04-04T01:47:57;89588.03;;;5.32;100.00
6395;BME280;3230;42.588;23.358;2023-04-04T01:50:22;89574.75;;;5.39;100.00
6395;BME280;3230;42.588;23.358;2023-04-04T01:52:47;89577.28;;;5.44;100.00
6395;BME280;3230;42.588;23.358;2023-04-04T01:55:14;89573.41;;;5.41;100.00
6395;BME280;3230;42.588;23.358;2023-04-04T01:57:39;89586.69;;;5.40;100.00
6395;BME280;3230;42.588;23.358;2023-04-04T02:00:06;89585.44;;;5.56;100.00
6395;BME280;3230;42.588;23.358;2023-04-04T02:02:31;89584.03;;;5.45;100.00
6395;BME280;3230;42.588;23.358;2023-04-04T02:04:56;89584.59;;;5.61;100.00
6395;BME280;3230;42.588;23.358;2023-04-04T02:07:22;89578.09;;;5.39;100.00
6395;BME280;3230;42.588;23.358;2023-04-04T02:09:48;89584.19;;;5.29;100.00
6395;BME280;3230;42.588;23.358;2023-04-04T02:12:13;89581.25;;;5.36;100.00
6395;BME280;3230;42.588;23.358;2023-04-04T02:14:39;89575.34;;;5.31;100.00
6395;BME280;3230;42.588;23.358;2023-04-04T02:17:05;89578.50;;;5.27;100.00
6395;BME280;3230;42.588;23.358;2023-04-04T02:19:30;89583.91;;;5.55;100.00
6395;BME280;3230;42.588;23.358;2023-04-04T02:21:56;89579.25;;;5.52;100.00
6395;BME280;3230;42.588;23.358;2023-04-04T02:24:21;89580.03;;;5.53;100.00
6395;BME280;3230;42.588;23.358;2023-04-04T02:26:47;89573.41;;;5.41;100.00
6395;BME280;3230;42.588;23.358;2023-04-04T02:29:12;89583.88;;;5.36;100.00
6395;BME280;3230;42.588;23.358;2023-04-04T02:31:38;89577.66;;;5.32;100.00
6395;BME280;3230;42.588;23.358;2023-04-04T02:34:03;89574.47;;;5.40;100.00
6395;BME280;3230;42.588;23.358;2023-04-04T02:36:28;89574.59;;;5.49;100.00
6395;BME280;3230;42.588;23.358;2023-04-04T02:38:54;89574.91;;;5.48;100.00
6395;BME280;3230;42.588;23.358;2023-04-04T02:41:19;89587.06;;;5.52;100.00
6395;BME280;3230;42.588;23.358;2023-04-04T02:43:45;89578.53;;;5.47;100.00
6395;BME280;3230;42.588;23.358;2023-04-04T02:46:10;89575.19;;;5.46;100.00
6395;BME280;3230;42.588;23.358;2023-04-04T02:48:36;89575.53;;;5.58;100.00
6395;BME280;3230;42.588;23.358;2023-04-04T02:51:01;89581.41;;;5.69;100.00
6395;BME280;3230;42.588;23.358;2023-04-04T02:53:27;89579.13;;;5.63;100.00
6395;BME280;3230;42.588;23.358;2023-04-04T02:55:53;89583.50;;;5.67;100.00
6395;BME280;3230;42.588;23.358;2023-04-04T02:58:19;89582.13;;;5.75;100.00
6395;BME280;3230;42.588;23.358;2023-04-04T03:00:44;89584.72;;;5.75;100.00
6395;BME280;3230;42.588;23.358;2023-04-04T03:03:11;89588.06;;;5.75;100.00
6395;BME280;3230;42.588;23.358;2023-04-04T03:05:37;89584.22;;;5.73;100.00
6395;BME280;3230;42.588;23.358;2023-04-04T03:08:02;89584.44;;;5.76;100.00
6395;BME280;3230;42.588;23.358;2023-04-04T03:10:29;89581.47;;;5.83;100.00
6395;BME280;3230;42.588;23.358;2023-04-04T03:12:55;89585.84;;;5.88;100.00
6395;BME280;3230;42.588;23.358;2023-04-04T03:15:21;89582.34;;;5.79;100.00
6395;BME280;3230;42.588;23.358;2023-04-04T03:17:46;89578.75;;;5.93;100.00
6395;BME280;3230;42.588;23.358;2023-04-04T03:20:12;89580.25;;;6.00;100.00
6395;BME280;3230;42.588;23.358;2023-04-04T03:22:39;89582.09;;;5.94;100.00
6395;BME280;3230;42.588;23.358;2023-04-04T03:25:06;89577.97;;;5.93;100.00
6395;BME280;3230;42.588;23.358;2023-04-04T03:27:31;89575.66;;;5.91;100.00
6395;BME280;3230;42.588;23.358;2023-04-04T03:29:57;89582.09;;;5.94;100.00
6395;BME280;3230;42.588;23.358;2023-04-04T03:32:23;89593.09;;;5.91;100.00
6395;BME280;3230;42.588;23.358;2023-04-04T03:34:49;89595.91;;;6.14;100.00
6395;BME280;3230;42.588;23.358;2023-04-04T03:37:16;89590.50;;;6.10;100.00
6395;BME280;3230;42.588;23.358;2023-04-04T03:39:41;89600.50;;;6.03;100.00
6395;BME280;3230;42.588;23.358;2023-04-04T03:42:06;89594.13;;;5.90;100.00
6395;BME280;3230;42.588;23.358;2023-04-04T03:44:32;89592.03;;;5.92;100.00
6395;BME280;3230;42.588;23.358;2023-04-04T03:46:57;89589.00;;;5.85;100.00
6395;BME280;3230;42.588;23.358;2023-04-04T03:49:22;89585.94;;;6.02;100.00
6395;BME280;3230;42.588;23.358;2023-04-04T03:51:48;89583.75;;;5.90;100.00
6395;BME280;3230;42.588;23.358;2023-04-04T03:54:14;89585.72;;;5.98;100.00
6395;BME280;3230;42.588;23.358;2023-04-04T03:56:40;89590.59;;;5.81;100.00
6395;BME280;3230;42.588;23.358;2023-04-04T03:59:05;89583.75;;;5.90;100.00
6395;BME280;3230;42.588;23.358;2023-04-04T04:01:31;89576.91;;;5.99;100.00
6395;BME280;3230;42.588;23.358;2023-04-04T04:03:56;89588.81;;;6.00;100.00
6395;BME280;3230;42.588;23.358;2023-04-04T04:06:22;89577.91;;;5.98;100.00
6395;BME280;3230;42.588;23.358;2023-04-04T04:08:47;89583.63;;;6.00;100.00
6395;BME280;3230;42.588;23.358;2023-04-04T04:11:12;89586.84;;;5.92;100.00
6395;BME280;3230;42.588;23.358;2023-04-04T04:13:38;89583.59;;;5.81;100.00
6395;BME280;3230;42.588;23.358;2023-04-04T04:16:04;89593.38;;;5.89;100.00
6395;BME280;3230;42.588;23.358;2023-04-04T04:18:30;89593.00;;;5.96;100.00
6395;BME280;3230;42.588;23.358;2023-04-04T04:20:57;89582.63;;;5.96;100.00
6395;BME280;3230;42.588;23.358;2023-04-04T04:23:23;89591.00;;;6.12;100.00
6395;BME280;3230;42.588;23.358;2023-04-04T04:25:49;89602.31;;;6.02;100.00
6395;BME280;3230;42.588;23.358;2023-04-04T04:28:14;89596.91;;;5.99;100.00
6395;BME280;3230;42.588;23.358;2023-04-04T04:30:40;89605.41;;;6.04;100.00
6395;BME280;3230;42.588;23.358;2023-04-04T04:33:05;89605.84;;;6.12;100.00
6395;BME280;3230;42.588;23.358;2023-04-04T04:35:30;89619.41;;;6.08;100.00
6395;BME280;3230;42.588;23.358;2023-04-04T04:37:56;89617.38;;;6.05;100.00
6395;BME280;3230;42.588;23.358;2023-04-04T04:40:21;89619.47;;;6.03;100.00
6395;BME280;3230;42.588;23.358;2023-04-04T04:42:47;89615.53;;;6.25;100.00
6395;BME280;3230;42.588;23.358;2023-04-04T04:45:12;89619.19;;;6.05;100.00
6395;BME280;3230;42.588;23.358;2023-04-04T04:47:38;89617.63;;;6.04;100.00
6395;BME280;3230;42.588;23.358;2023-04-04T04:50:03;89633.25;;;6.23;100.00
6395;BME280;3230;42.588;23.358;2023-04-04T04:52:29;89622.00;;;6.28;100.00
6395;BME280;3230;42.588;23.358;2023-04-04T04:54:56;89617.03;;;6.31;100.00
6395;BME280;3230;42.588;23.358;2023-04-04T04:57:22;89624.63;;;6.28;100.00
6395;BME280;3230;42.588;23.358;2023-04-04T04:59:47;89634.00;;;6.23;100.00
6395;BME280;3230;42.588;23.358;2023-04-04T05:02:14;89625.47;;;6.42;100.00
6395;BME280;3230;42.588;23.358;2023-04-04T05:04:40;89639.97;;;6.62;100.00
6395;BME280;3230;42.588;23.358;2023-04-04T05:07:09;89643.94;;;6.60;100.00
6395;BME280;3230;42.588;23.358;2023-04-04T05:09:36;89643.72;;;6.75;100.00
6395;BME280;3230;42.588;23.358;2023-04-04T05:12:02;89647.25;;;6.65;100.00
6395;BME280;3230;42.588;23.358;2023-04-04T05:14:27;89653.91;;;6.71;100.00
6395;BME280;3230;42.588;23.358;2023-04-04T05:16:53;89657.91;;;6.83;100.00
6395;BME280;3230;42.588;23.358;2023-04-04T05:19:18;89659.09;;;6.91;100.00
6395;BME280;3230;42.588;23.358;2023-04-04T05:21:44;89664.13;;;7.01;100.00
6395;BME280;3230;42.588;23.358;2023-04-04T05:24:10;89667.50;;;7.01;100.00
6395;BME280;3230;42.588;23.358;2023-04-04T05:26:35;89668.19;;;7.07;100.00
6395;BME280;3230;42.588;23.358;2023-04-04T05:29:00;89662.03;;;7.17;100.00
6395;BME280;3230;42.588;23.358;2023-04-04T05:31:26;89663.75;;;7.41;100.00
6395;BME280;3230;42.588;23.358;2023-04-04T05:33:51;89663.66;;;7.46;100.00
6395;BME280;3230;42.588;23.358;2023-04-04T05:36:18;89662.69;;;7.69;100.00
6395;BME280;3230;42.588;23.358;2023-04-04T05:38:43;89667.75;;;7.80;100.00
6395;BME280;3230;42.588;23.358;2023-04-04T05:41:08;89671.41;;;8.07;100.00
6395;BME280;3230;42.588;23.358;2023-04-04T05:43:34;89669.16;;;8.00;100.00
6395;BME280;3230;42.588;23.358;2023-04-04T05:46:00;89665.31;;;8.11;100.00
6395;BME280;3230;42.588;23.358;2023-04-04T05:48:26;89680.38;;;8.28;100.00
6395;BME280;3230;42.588;23.358;2023-04-04T05:50:51;89672.63;;;8.37;100.00
6395;BME280;3230;42.588;23.358;2023-04-04T05:53:16;89679.31;;;8.80;100.00
6395;BME280;3230;42.588;23.358;2023-04-04T05:55:42;89677.38;;;8.86;100.00
6395;BME280;3230;42.588;23.358;2023-04-04T05:58:07;89681.53;;;9.09;100.00
6395;BME280;3230;42.588;23.358;2023-04-04T06:00:33;89682.41;;;9.27;100.00
6395;BME280;3230;42.588;23.358;2023-04-04T06:02:58;89687.63;;;9.50;99.50
6395;BME280;3230;42.588;23.358;2023-04-04T06:05:24;89693.06;;;9.63;97.92
6395;BME280;3230;42.588;23.358;2023-04-04T06:07:49;89691.16;;;9.77;98.04
6395;BME280;3230;42.588;23.358;2023-04-04T06:10:15;89691.22;;;9.95;98.07
6395;BME280;3230;42.588;23.358;2023-04-04T06:12:41;89696.63;;;10.07;98.34
6395;BME280;3230;42.588;23.358;2023-04-04T06:15:06;89702.50;;;10.13;97.89
6395;BME280;3230;42.588;23.358;2023-04-04T06:17:32;89695.16;;;9.83;100.00
6395;BME280;3230;42.588;23.358;2023-04-04T06:19:57;89690.88;;;9.87;100.00
6395;BME280;3230;42.588;23.358;2023-04-04T06:22:23;89682.78;;;9.66;100.00
6395;BME280;3230;42.588;23.358;2023-04-04T06:24:48;89693.56;;;10.05;100.00
6395;BME280;3230;42.588;23.358;2023-04-04T06:27:14;89690.13;;;9.96;100.00
6395;BME280;3230;42.588;23.358;2023-04-04T06:29:39;89707.50;;;10.32;100.00
6395;BME280;3230;42.588;23.358;2023-04-04T06:32:05;89704.81;;;9.74;100.00
6395;BME280;3230;42.588;23.358;2023-04-04T06:34:31;89713.31;;;9.80;100.00
6395;BME280;3230;42.588;23.358;2023-04-04T06:36:56;89711.22;;;9.90;100.00
6395;BME280;3230;42.588;23.358;2023-04-04T06:39:22;89713.06;;;9.58;100.00
6395;BME280;3230;42.588;23.358;2023-04-04T06:41:47;89717.59;;;9.44;100.00
6395;BME280;3230;42.588;23.358;2023-04-04T06:44:13;89712.94;;;9.18;100.00
6395;BME280;3230;42.588;23.358;2023-04-04T06:46:38;89716.59;;;9.63;100.00
6395;BME280;3230;42.588;23.358;2023-04-04T06:49:04;89726.81;;;9.73;100.00
6395;BME280;3230;42.588;23.358;2023-04-04T06:51:32;89726.59;;;9.60;100.00
6395;BME280;3230;42.588;23.358;2023-04-04T06:53:59;89721.38;;;9.15;100.00
6395;BME280;3230;42.588;23.358;2023-04-04T06:56:25;89723.63;;;9.08;100.00
6395;BME280;3230;42.588;23.358;2023-04-04T06:58:51;89729.22;;;9.15;100.00
6395;BME280;3230;42.588;23.358;2023-04-04T07:01:17;89729.47;;;9.27;100.00
6395;BME280;3230;42.588;23.358;2023-04-04T07:03:42;89733.03;;;9.09;100.00
6395;BME280;3230;42.588;23.358;2023-04-04T07:06:09;89742.44;;;8.96;100.00
6395;BME280;3230;42.588;23.358;2023-04-04T07:08:35;89753.50;;;8.79;100.00
6395;BME280;3230;42.588;23.358;2023-04-04T07:11:01;89751.59;;;7.87;100.00
6395;BME280;3230;42.588;23.358;2023-04-04T07:13:26;89758.38;;;7.55;100.00
6395;BME280;3230;42.588;23.358;2023-04-04T07:15:52;89748.00;;;7.36;100.00
6395;BME280;3230;42.588;23.358;2023-04-04T07:18:17;89758.31;;;6.89;100.00
6395;BME280;3230;42.588;23.358;2023-04-04T07:20:45;89759.09;;;6.70;100.00
6395;BME280;3230;42.588;23.358;2023-04-04T07:23:11;89761.41;;;6.53;100.00
6395;BME280;3230;42.588;23.358;2023-04-04T07:25:37;89747.59;;;6.33;100.00
6395;BME280;3230;42.588;23.358;2023-04-04T07:28:02;89764.28;;;6.27;100.00
6395;BME280;3230;42.588;23.358;2023-04-04T07:30:28;89763.91;;;6.15;100.00
6395;BME280;3230;42.588;23.358;2023-04-04T07:32:59;89760.19;;;5.97;100.00
6395;BME280;3230;42.588;23.358;2023-04-04T07:35:25;89767.59;;;5.84;100.00
6395;BME280;3230;42.588;23.358;2023-04-04T07:37:51;89763.88;;;5.90;100.00
6395;BME280;3230;42.588;23.358;2023-04-04T07:40:16;89771.94;;;5.65;100.00
6395;BME280;3230;42.588;23.358;2023-04-04T07:42:45;89771.59;;;5.47;100.00
6395;BME280;3230;42.588;23.358;2023-04-04T07:45:12;89767.53;;;5.31;100.00
6395;BME280;3230;42.588;23.358;2023-04-04T07:47:42;89772.47;;;5.32;100.00
6395;BME280;3230;42.588;23.358;2023-04-04T07:50:08;89768.72;;;5.14;100.00
6395;BME280;3230;42.588;23.358;2023-04-04T07:52:34;89767.47;;;5.06;100.00
6395;BME280;3230;42.588;23.358;2023-04-04T07:54:59;89776.81;;;4.62;100.00
6395;BME280;3230;42.588;23.358;2023-04-04T07:57:25;89777.25;;;4.30;100.00
6395;BME280;3230;42.588;23.358;2023-04-04T07:59:51;89785.81;;;4.20;100.00
6395;BME280;3230;42.588;23.358;2023-04-04T08:02:16;89778.53;;;4.32;100.00
6395;BME280;3230;42.588;23.358;2023-04-04T08:04:41;89789.00;;;4.02;100.00
6395;BME280;3230;42.588;23.358;2023-04-04T08:07:07;89787.69;;;4.14;100.00
6395;BME280;3230;42.588;23.358;2023-04-04T08:09:32;89780.44;;;4.06;100.00
6395;BME280;3230;42.588;23.358;2023-04-04T08:12:00;89777.25;;;4.30;100.00
6395;BME280;3230;42.588;23.358;2023-04-04T08:14:27;89793.84;;;4.24;100.00
6395;BME280;3230;42.588;23.358;2023-04-04T08:16:52;89767.94;;;4.19;100.00
6395;BME280;3230;42.588;23.358;2023-04-04T08:19:18;89790.94;;;4.41;100.00
6395;BME280;3230;42.588;23.358;2023-04-04T08:21:44;89799.59;;;4.15;100.00
6395;BME280;3230;42.588;23.358;2023-04-04T08:24:10;89803.66;;;4.37;100.00
6395;BME280;3230;42.588;23.358;2023-04-04T08:26:36;89800.34;;;4.21;100.00
6395;BME280;3230;42.588;23.358;2023-04-04T08:29:01;89819.56;;;4.15;100.00
6395;BME280;3230;42.588;23.358;2023-04-04T08:31:27;89826.59;;;4.04;100.00
6395;BME280;3230;42.588;23.358;2023-04-04T08:33:54;89825.81;;;4.09;100.00
6395;BME280;3230;42.588;23.358;2023-04-04T08:36:19;89823.50;;;3.97;100.00
6395;BME280;3230;42.588;23.358;2023-04-04T08:38:44;89826.13;;;3.81;100.00
6395;BME280;3230;42.588;23.358;2023-04-04T08:41:11;89824.78;;;4.05;100.00
6395;BME280;3230;42.588;23.358;2023-04-04T08:43:37;89837.47;;;4.06;100.00
6395;BME280;3230;42.588;23.358;2023-04-04T08:46:06;89828.16;;;4.00;100.00
6395;BME280;3230;42.588;23.358;2023-04-04T08:48:34;89834.91;;;3.86;100.00
6395;BME280;3230;42.588;23.358;2023-04-04T08:51:02;89836.50;;;3.81;100.00
6395;BME280;3230;42.588;23.358;2023-04-04T08:53:29;89845.53;;;3.89;100.00
6395;BME280;3230;42.588;23.358;2023-04-04T08:55:58;89856.66;;;3.90;100.00
6395;BME280;3230;42.588;23.358;2023-04-04T08:58:24;89847.63;;;3.92;100.00
6395;BME280;3230;42.588;23.358;2023-04-04T09:00:54;89849.97;;;3.89;100.00
6395;BME280;3230;42.588;23.358;2023-04-04T09:03:25;89858.22;;;4.06;100.00
6395;BME280;3230;42.588;23.358;2023-04-04T09:05:52;89858.72;;;4.13;100.00
6395;BME280;3230;42.588;23.358;2023-04-04T09:08:19;89862.25;;;4.48;100.00
6395;BME280;3230;42.588;23.358;2023-04-04T09:10:45;89861.63;;;4.77;100.00
6395;BME280;3230;42.588;23.358;2023-04-04T09:13:11;89864.66;;;4.95;100.00
6395;BME280;3230;42.588;23.358;2023-04-04T09:15:37;89850.91;;;4.94;100.00
6395;BME280;3230;42.588;23.358;2023-04-04T09:18:04;89857.53;;;5.11;100.00
6395;BME280;3230;42.588;23.358;2023-04-04T09:20:39;89866.31;;;5.20;100.00
6395;BME280;3230;42.588;23.358;2023-04-04T09:23:15;89856.91;;;5.29;100.00
6395;BME280;3230;42.588;23.358;2023-04-04T09:25:50;89853.34;;;5.55;100.00
6395;BME280;3230;42.588;23.358;2023-04-04T09:28:17;89862.81;;;6.10;100.00
6395;BME280;3230;42.588;23.358;2023-04-04T09:30:43;89865.88;;;6.41;100.00
6395;BME280;3230;42.588;23.358;2023-04-04T09:33:11;89876.34;;;6.36;100.00
6395;BME280;3230;42.588;23.358;2023-04-04T09:35:38;89856.75;;;6.44;100.00
6395;BME280;3230;42.588;23.358;2023-04-04T09:38:06;89869.53;;;6.40;100.00
6395;BME280;3230;42.588;23.358;2023-04-04T09:40:33;89870.56;;;6.15;100.00
6395;BME280;3230;42.588;23.358;2023-04-04T09:43:01;89866.31;;;6.24;100.00
6395;BME280;3230;42.588;23.358;2023-04-04T09:45:29;89859.72;;;6.32;100.00
6395;BME280;3230;42.588;23.358;2023-04-04T09:47:55;89864.25;;;6.21;100.00
6395;BME280;3230;42.588;23.358;2023-04-04T09:50:22;89876.94;;;6.28;100.00
6395;BME280;3230;42.588;23.358;2023-04-04T09:52:49;89875.50;;;6.40;100.00
6395;BME280;3230;42.588;23.358;2023-04-04T09:55:14;89873.22;;;6.10;100.00
6395;BME280;3230;42.588;23.358;2023-04-04T09:57:41;89869.56;;;6.11;100.00
6395;BME280;3230;42.588;23.358;2023-04-04T10:00:06;89872.44;;;6.09;100.00
6395;BME280;3230;42.588;23.358;2023-04-04T10:02:45;89876.56;;;6.10;100.00
6395;BME280;3230;42.588;23.358;2023-04-04T10:05:11;89875.16;;;5.59;100.00
6395;BME280;3230;42.588;23.358;2023-04-04T10:07:38;89879.03;;;5.62;100.00
6395;BME280;3230;42.588;23.358;2023-04-04T10:10:05;89878.81;;;5.53;100.00
6395;BME280;3230;42.588;23.358;2023-04-04T10:12:31;89880.75;;;5.37;100.00
6395;BME280;3230;42.588;23.358;2023-04-04T10:15:00;89882.19;;;5.13;100.00
6395;BME280;3230;42.588;23.358;2023-04-04T10:17:31;89893.19;;;4.95;100.00
6395;BME280;3230;42.588;23.358;2023-04-04T10:20:03;89891.06;;;4.42;100.00
6395;BME280;3230;42.588;23.358;2023-04-04T10:22:34;89900.56;;;4.67;100.00
6395;BME280;3230;42.588;23.358;2023-04-04T10:24:59;89904.81;;;4.37;100.00
6395;BME280;3230;42.588;23.358;2023-04-04T10:27:25;89905.03;;;4.51;100.00
6395;BME280;3230;42.588;23.358;2023-04-04T10:29:51;89913.63;;;4.31;100.00
6395;BME280;3230;42.588;23.358;2023-04-04T10:32:31;89919.88;;;4.30;100.00
6395;BME280;3230;42.588;23.358;2023-04-04T10:35:03;89912.88;;;4.30;100.00
6395;BME280;3230;42.588;23.358;2023-04-04T10:37:59;89915.97;;;4.27;100.00
6395;BME280;3230;42.588;23.358;2023-04-04T10:40:29;89913.63;;;4.31;100.00
6395;BME280;3230;42.588;23.358;2023-04-04T10:43:01;89915.78;;;4.03;100.00
6395;BME280;3230;42.588;23.358;2023-04-04T10:45:27;89919.41;;;4.07;100.00
6395;BME280;3230;42.588;23.358;2023-04-04T10:47:53;89924.28;;;4.24;100.00
6395;BME280;3230;42.588;23.358;2023-04-04T10:50:19;89922.22;;;4.31;100.00
6395;BME280;3230;42.588;23.358;2023-04-04T10:52:45;89924.81;;;4.31;100.00
6395;BME280;3230;42.588;23.358;2023-04-04T10:55:12;89925.09;;;4.14;100.00
6395;BME280;3230;42.588;23.358;2023-04-04T10:57:41;89923.53;;;4.19;100.00
6395;BME280;3230;42.588;23.358;2023-04-04T11:00:11;89930.81;;;3.96;100.00
6395;BME280;3230;42.588;23.358;2023-04-04T11:05:22;89935.47;;;3.99;100.00
6395;BME280;3230;42.588;23.358;2023-04-04T11:07:53;89935.72;;;4.03;100.00
6395;BME280;3230;42.588;23.358;2023-04-04T11:10:26;89934.94;;;3.71;100.00
6395;BME280;3230;42.588;23.358;2023-04-04T11:12:54;89937.53;;;3.87;100.00
6395;BME280;3230;42.588;23.358;2023-04-04T11:15:25;89940.66;;;3.73;100.00
6395;BME280;3230;42.588;23.358;2023-04-04T11:17:55;89942.47;;;3.83;100.00
6395;BME280;3230;42.588;23.358;2023-04-04T11:23:17;89942.19;;;3.48;100.00
6395;BME280;3230;42.588;23.358;2023-04-04T11:25:54;89937.53;;;3.45;100.00
6395;BME280;3230;42.588;23.358;2023-04-04T11:31:33;89946.06;;;3.41;100.00
6395;BME280;3230;42.588;23.358;2023-04-04T11:34:09;89941.41;;;3.48;100.00
6395;BME280;3230;42.588;23.358;2023-04-04T11:44:09;89936.00;;;3.55;100.00
6395;BME280;3230;42.588;23.358;2023-04-04T11:46:34;89956.72;;;3.65;100.00
6395;BME280;3230;42.588;23.358;2023-04-04T11:49:00;89953.09;;;3.66;100.00
6395;BME280;3230;42.588;23.358;2023-04-04T11:51:26;89947.91;;;3.56;100.00
6395;BME280;3230;42.588;23.358;2023-04-04T11:53:52;89954.63;;;3.72;100.00
6395;BME280;3230;42.588;23.358;2023-04-04T11:56:18;89958.00;;;3.52;100.00
6395;BME280;3230;42.588;23.358;2023-04-04T11:58:47;89941.97;;;3.65;100.00
6395;BME280;3230;42.588;23.358;2023-04-04T12:01:13;89947.91;;;3.76;100.00
6395;BME280;3230;42.588;23.358;2023-04-04T12:03:39;89951.28;;;3.87;100.00
6395;BME280;3230;42.588;23.358;2023-04-04T12:06:05;89949.72;;;4.12;100.00
6395;BME280;3230;42.588;23.358;2023-04-04T12:08:31;89952.31;;;4.17;100.00
6395;BME280;3230;42.588;23.358;2023-04-04T12:11:03;89956.47;;;4.13;100.00
6395;BME280;3230;42.588;23.358;2023-04-04T12:13:31;89961.13;;;3.85;100.00
6395;BME280;3230;42.588;23.358;2023-04-04T12:15:57;89955.97;;;4.06;100.00
6395;BME280;3230;42.588;23.358;2023-04-04T12:18:23;89952.31;;;3.96;100.00
6395;BME280;3230;42.588;23.358;2023-04-04T12:20:51;89951.53;;;4.16;100.00
6395;BME280;3230;42.588;23.358;2023-04-04T12:23:17;89958.00;;;3.88;100.00
6395;BME280;3230;42.588;23.358;2023-04-04T12:25:43;89952.31;;;3.96;100.00
6395;BME280;3230;42.588;23.358;2023-04-04T12:28:09;89959.06;;;4.03;100.00
6395;BME280;3230;42.588;23.358;2023-04-04T12:30:36;89958.81;;;3.89;100.00
6395;BME280;3230;42.588;23.358;2023-04-04T12:33:03;89958.28;;;4.07;100.00
6395;BME280;3230;42.588;23.358;2023-04-04T12:35:29;89963.72;;;3.80;100.00
6395;BME280;3230;42.588;23.358;2023-04-04T12:38:03;89964.50;;;3.80;100.00
6395;BME280;3230;42.588;23.358;2023-04-04T12:40:33;89958.00;;;3.93;100.00
6395;BME280;3230;42.588;23.358;2023-04-04T12:43:03;89962.94;;;4.05;100.00
6395;BME280;3230;42.588;23.358;2023-04-04T12:45:28;89962.16;;;4.15;100.00
6395;BME280;3230;42.588;23.358;2023-04-04T12:47:55;89963.72;;;4.06;100.00
6395;BME280;3230;42.588;23.358;2023-04-04T12:50:25;89973.84;;;4.07;100.00
6395;BME280;3230;42.588;23.358;2023-04-04T12:52:51;89974.06;;;3.80;100.00
6395;BME280;3230;42.588;23.358;2023-04-04T12:55:22;89971.22;;;3.66;100.00
6395;BME280;3230;42.588;23.358;2023-04-04T12:57:48;89975.34;;;3.57;100.00
6395;BME280;3230;42.588;23.358;2023-04-04T13:00:14;89980.03;;;3.70;100.00
6395;BME280;3230;42.588;23.358;2023-04-04T13:02:44;89974.06;;;3.80;100.00
6395;BME280;3230;42.588;23.358;2023-04-04T13:05:11;89982.63;;;3.65;100.00
6395;BME280;3230;42.588;23.358;2023-04-04T13:07:38;89982.63;;;3.65;100.00
6395;BME280;3230;42.588;23.358;2023-04-04T13:10:08;89988.09;;;3.84;100.00
6395;BME280;3230;42.588;23.358;2023-04-04T13:15:18;89996.00;;;3.26;100.00
6395;BME280;3230;42.588;23.358;2023-04-04T13:17:45;89998.84;;;3.29;100.00
6395;BME280;3230;42.588;23.358;2023-04-04T13:20:13;90007.38;;;3.19;100.00
6395;BME280;3230;42.588;23.358;2023-04-04T13:22:40;89994.91;;;3.16;100.00
6395;BME280;3230;42.588;23.358;2023-04-04T13:25:07;89993.81;;;2.92;100.00
6395;BME280;3230;42.588;23.358;2023-04-04T13:27:33;90001.03;;;2.90;100.00
6395;BME280;3230;42.588;23.358;2023-04-04T13:29:58;89999.94;;;2.75;100.00
6395;BME280;3230;42.588;23.358;2023-04-04T13:32:24;90000.47;;;2.82;100.00